createdAt,value
2022-11-27T00:01:43.381Z,99220.66
2022-11-27T00:04:11.853Z,99202.94
2022-11-27T00:06:40.493Z,99202.94
2022-11-27T00:09:10.792Z,99190.25
2022-11-27T00:11:40.060Z,99183.69
2022-11-27T00:14:07.912Z,99194.41
2022-11-27T00:16:34.663Z,99184.34
2022-11-27T00:19:01.388Z,99173.66
2022-11-27T00:21:30.423Z,99171.84
2022-11-27T00:23:58.848Z,99174.31
2022-11-27T00:26:27.072Z,99151.94
2022-11-27T00:28:55.341Z,99134.88
2022-11-27T00:31:27.491Z,99146.44
2022-11-27T00:33:55.507Z,99154.44
2022-11-27T00:36:22.757Z,99143.75
2022-11-27T00:38:49.444Z,99140.69
2022-11-27T00:41:28.244Z,99136.56
2022-11-27T00:43:55.656Z,99113.16
2022-11-27T00:46:28.714Z,99117.13
2022-11-27T00:48:57.699Z,99114.63
2022-11-27T00:51:25.379Z,99122.47
2022-11-27T00:53:53.581Z,99119.13
2022-11-27T00:56:28.944Z,99120.63
2022-11-27T00:58:56.356Z,99077.84
2022-11-27T01:01:33.278Z,99107.06
2022-11-27T01:04:01.349Z,99104.03
2022-11-27T01:06:29.640Z,99095.19
2022-11-27T01:08:57.106Z,99097.03
2022-11-27T01:11:26.525Z,99114.72
2022-11-27T01:13:55.638Z,99089.19
2022-11-27T01:16:25.468Z,99090.47
2022-11-27T01:18:54.994Z,99086.59
2022-11-27T01:21:22.061Z,99069.34
2022-11-27T01:23:49.882Z,99069.34
2022-11-27T01:26:17.807Z,99064.41
2022-11-27T01:28:45.170Z,99068.53
2022-11-27T01:31:18.902Z,99065.31
2022-11-27T01:33:46.650Z,99065.13
2022-11-27T01:36:15.727Z,99071.13
2022-11-27T01:38:42.539Z,99098.03
2022-11-27T01:41:19.378Z,99085.31
2022-11-27T01:44:01.045Z,99078.34
2022-11-27T01:46:41.283Z,99080.63
2022-11-27T01:49:11.510Z,99086.44
2022-11-27T01:51:52.141Z,99079.88
2022-11-27T01:54:21.768Z,99075.19
2022-11-27T01:56:52.035Z,99061.06
2022-11-27T01:59:19.497Z,99070.75
2022-11-27T02:01:46.180Z,99084.59
2022-11-27T02:04:12.917Z,99093.25
2022-11-27T02:06:39.545Z,99070.84
2022-11-27T02:09:06.957Z,99069.19
2022-11-27T02:11:42.879Z,99047.97
2022-11-27T02:14:15.610Z,99048.34
2022-11-27T02:17:09.614Z,99071.22
2022-11-27T02:20:01.107Z,99070.00
2022-11-27T02:22:57.208Z,99061.97
2022-11-27T02:25:39.108Z,99056.63
2022-11-27T02:28:17.881Z,99067.34
2022-11-27T02:30:53.874Z,99075.66
2022-11-27T02:33:21.643Z,99064.47
2022-11-27T02:35:55.025Z,99060.78
2022-11-27T02:38:28.175Z,99056.81
2022-11-27T02:41:08.682Z,99054.13
2022-11-27T02:43:41.597Z,99058.84
2022-11-27T02:46:11.143Z,99080.63
2022-11-27T02:48:45.806Z,99073.41
2022-11-27T02:51:15.119Z,99061.44
2022-11-27T02:53:50.535Z,99060.53
2022-11-27T02:56:22.423Z,99064.75
2022-11-27T02:58:52.517Z,99069.84
2022-11-27T03:01:21.477Z,99053.31
2022-11-27T03:03:53.301Z,99066.03
2022-11-27T03:06:29.177Z,99066.91
2022-11-27T03:09:02.448Z,99072.59
2022-11-27T03:11:30.960Z,99090.19
2022-11-27T03:14:03.118Z,99113.78
2022-11-27T03:16:48.251Z,99127.88
2022-11-27T03:19:24.743Z,99142.50
2022-11-27T03:22:00.352Z,99149.06
2022-11-27T03:24:28.837Z,99156.31
2022-11-27T03:26:59.151Z,99167.03
2022-11-27T03:29:33.483Z,99168.03
2022-11-27T03:32:01.537Z,99172.78
2022-11-27T03:34:29.167Z,99175.66
2022-11-27T03:36:55.915Z,99182.53
2022-11-27T03:39:23.728Z,99177.88
2022-11-27T03:42:08.780Z,99188.59
2022-11-27T03:44:41.081Z,99185.94
2022-11-27T03:47:16.954Z,99175.25
2022-11-27T03:49:57.306Z,99187.44
2022-11-27T03:52:51.616Z,99178.28
2022-11-27T03:55:37.313Z,99170.97
2022-11-27T03:58:09.241Z,99177.00
2022-11-27T04:00:40.388Z,99188.72
2022-11-27T04:03:11.066Z,99205.41
2022-11-27T04:05:39.689Z,99215.59
2022-11-27T04:08:06.849Z,99226.09
2022-11-27T04:10:33.819Z,99226.09
2022-11-27T04:13:00.482Z,99235.47
2022-11-27T04:15:27.169Z,99248.16
2022-11-27T04:17:53.853Z,99253.81
2022-11-27T04:20:20.648Z,99267.69
2022-11-27T04:22:47.304Z,99258.19
2022-11-27T04:25:14.041Z,99251.19
2022-11-27T04:27:41.850Z,99251.88
2022-11-27T04:30:09.522Z,99263.38
2022-11-27T04:32:36.144Z,99269.22
2022-11-27T04:35:02.897Z,99280.19
2022-11-27T04:37:29.637Z,99273.22
2022-11-27T04:39:56.464Z,99279.53
2022-11-27T04:42:23.167Z,99287.22
2022-11-27T04:44:50.096Z,99270.19
2022-11-27T04:47:17.149Z,99281.38
2022-11-27T04:49:43.866Z,99280.88
2022-11-27T04:52:13.549Z,99280.06
2022-11-27T04:54:41.108Z,99278.72
2022-11-27T04:57:07.964Z,99293.09
2022-11-27T04:59:36.196Z,99291.72
2022-11-27T05:02:02.923Z,99294.22
2022-11-27T05:04:29.950Z,99302.41
2022-11-27T05:06:56.617Z,99302.72
2022-11-27T05:09:23.516Z,99303.88
2022-11-27T05:11:50.284Z,99315.06
2022-11-27T05:14:18.135Z,99322.91
2022-11-27T05:16:50.270Z,99315.56
2022-11-27T05:19:19.375Z,99309.88
2022-11-27T05:21:47.291Z,99318.59
2022-11-27T05:24:15.278Z,99329.56
2022-11-27T05:26:42.404Z,99330.06
2022-11-27T05:29:11.004Z,99335.56
2022-11-27T05:31:37.961Z,99326.06
2022-11-27T05:34:05.208Z,99337.56
2022-11-27T05:36:33.625Z,99348.56
2022-11-27T05:39:01.253Z,99345.56
2022-11-27T05:41:28.454Z,99356.91
2022-11-27T05:43:55.396Z,99347.22
2022-11-27T05:46:23.167Z,99357.41
2022-11-27T05:48:50.530Z,99352.41
2022-11-27T05:51:18.339Z,99362.09
2022-11-27T05:53:45.769Z,99371.56
2022-11-27T05:56:15.728Z,99362.91
2022-11-27T05:58:44.344Z,99365.56
2022-11-27T06:01:13.186Z,99376.06
2022-11-27T06:03:40.158Z,99379.91
2022-11-27T06:06:08.788Z,99392.56
2022-11-27T06:08:40.132Z,99391.22
2022-11-27T06:11:11.281Z,99388.41
2022-11-27T06:13:38.196Z,99385.41
2022-11-27T06:16:13.684Z,99379.72
2022-11-27T06:18:40.459Z,99389.69
2022-11-27T06:21:09.380Z,99385.53
2022-11-27T06:23:36.848Z,99393.56
2022-11-27T06:26:13.545Z,99402.06
2022-11-27T06:28:41.073Z,99412.41
2022-11-27T06:31:17.734Z,99403.56
2022-11-27T06:33:46.353Z,99411.91
2022-11-27T06:36:13.029Z,99411.06
2022-11-27T06:38:39.881Z,99419.41
2022-11-27T06:41:18.487Z,99417.56
2022-11-27T06:43:45.268Z,99417.41
2022-11-27T06:46:15.488Z,99415.09
2022-11-27T06:48:47.053Z,99427.56
2022-11-27T06:51:16.440Z,99434.56
2022-11-27T06:53:44.152Z,99445.53
2022-11-27T06:56:13.879Z,99443.72
2022-11-27T06:58:41.646Z,99454.53
2022-11-27T07:01:12.826Z,99465.97
2022-11-27T07:03:39.820Z,99469.97
2022-11-27T07:06:10.470Z,99473.94
2022-11-27T07:08:37.930Z,99464.44
2022-11-27T07:11:20.470Z,99473.56
2022-11-27T07:13:48.165Z,99474.72
2022-11-27T07:16:15.914Z,99480.06
2022-11-27T07:18:45.390Z,99482.88
2022-11-27T07:21:12.515Z,99488.69
2022-11-27T07:23:39.510Z,99491.34
2022-11-27T07:26:11.998Z,99485.34
2022-11-27T07:28:39.090Z,99489.16
2022-11-27T07:31:06.420Z,99503.31
2022-11-27T07:33:33.155Z,99506.44
2022-11-27T07:36:04.726Z,99517.25
2022-11-27T07:38:31.452Z,99519.84
2022-11-27T07:41:02.387Z,99514.03
2022-11-27T07:43:30.928Z,99518.91
2022-11-27T07:45:57.765Z,99519.72
2022-11-27T07:48:25.046Z,99514.84
2022-11-27T07:50:51.770Z,99508.47
2022-11-27T07:53:18.509Z,99517.38
2022-11-27T07:55:45.622Z,99513.81
2022-11-27T07:58:12.481Z,99519.06
2022-11-27T08:00:39.426Z,99507.38
2022-11-27T08:03:06.204Z,99505.38
2022-11-27T08:05:37.882Z,99502.34
2022-11-27T08:08:05.142Z,99502.94
2022-11-27T08:10:35.981Z,99498.47
2022-11-27T08:13:03.232Z,99507.13
2022-11-27T08:15:29.957Z,99504.25
2022-11-27T08:17:56.647Z,99499.59
2022-11-27T08:20:23.419Z,99494.50
2022-11-27T08:22:50.609Z,99497.16
2022-11-27T08:25:17.959Z,99504.47
2022-11-27T08:27:44.872Z,99503.78
2022-11-27T08:30:14.108Z,99509.94
2022-11-27T08:32:42.435Z,99516.94
2022-11-27T08:35:11.158Z,99524.38
2022-11-27T08:37:38.135Z,99528.72
2022-11-27T08:40:05.573Z,99532.69
2022-11-27T08:42:32.294Z,99529.47
2022-11-27T08:44:59.350Z,99536.31
2022-11-27T08:47:26.255Z,99538.16
2022-11-27T08:49:52.920Z,99546.97
2022-11-27T08:52:20.647Z,99546.28
2022-11-27T08:54:47.442Z,99549.06
2022-11-27T08:57:14.213Z,99548.56
2022-11-27T08:59:40.917Z,99548.34
2022-11-27T09:02:11.678Z,99546.13
2022-11-27T09:04:38.710Z,99555.78
2022-11-27T09:07:05.796Z,99565.25
2022-11-27T09:09:32.496Z,99571.72
2022-11-27T09:11:59.219Z,99570.22
2022-11-27T09:14:25.928Z,99578.16
2022-11-27T09:16:53.678Z,99575.22
2022-11-27T09:19:21.625Z,99569.16
2022-11-27T09:21:50.549Z,99585.22
2022-11-27T09:24:17.309Z,99585.38
2022-11-27T09:26:44.852Z,99593.72
2022-11-27T09:29:11.608Z,99598.63
2022-11-27T09:31:38.496Z,99593.41
2022-11-27T09:34:05.830Z,99597.97
2022-11-27T09:36:32.572Z,99600.81
2022-11-27T09:38:59.978Z,99604.66
2022-11-27T09:41:41.562Z,99611.41
2022-11-27T09:44:45.488Z,99617.63
2022-11-27T09:47:54.260Z,99623.94
2022-11-27T09:50:28.858Z,99616.13
2022-11-27T09:53:05.627Z,99614.97
2022-11-27T09:55:38.119Z,99610.47
2022-11-27T09:58:13.228Z,99609.78
2022-11-27T10:00:40.299Z,99604.22
2022-11-27T10:03:21.545Z,99618.91
2022-11-27T10:06:00.622Z,99605.59
2022-11-27T10:08:57.961Z,99600.66
2022-11-27T10:12:05.686Z,99592.84
2022-11-27T10:15:01.657Z,99584.88
2022-11-27T10:17:35.679Z,99598.53
2022-11-27T10:20:30.766Z,99601.19
2022-11-27T10:23:09.740Z,99617.91
2022-11-27T10:25:48.185Z,99625.22
2022-11-27T10:28:43.317Z,99631.94
2022-11-27T10:31:18.481Z,99629.41
2022-11-27T10:33:50.795Z,99629.75
2022-11-27T10:36:26.240Z,99634.06
2022-11-27T10:38:55.468Z,99635.91
2022-11-27T10:41:49.291Z,99631.91
2022-11-27T10:44:28.340Z,99628.56
2022-11-27T10:47:02.417Z,99626.91
2022-11-27T10:49:30.419Z,99616.91
2022-11-27T10:51:57.295Z,99605.19
2022-11-27T10:54:30.308Z,99594.03
2022-11-27T10:57:08.820Z,99604.34
2022-11-27T10:59:42.589Z,99604.03
2022-11-27T11:08:26.357Z,99608.53
2022-11-27T11:10:58.957Z,99615.75
2022-11-27T11:13:30.279Z,99615.06
2022-11-27T11:16:01.493Z,99613.22
2022-11-27T11:18:50.043Z,99611.72
2022-11-27T11:21:27.730Z,99615.22
2022-11-27T11:24:01.359Z,99606.72
2022-11-27T11:26:29.858Z,99607.53
2022-11-27T11:28:59.623Z,99602.66
2022-11-27T11:31:34.593Z,99602.84
2022-11-27T11:34:04.798Z,99604.34
2022-11-27T11:36:32.283Z,99602.50
2022-11-27T11:39:00.215Z,99601.16
2022-11-27T11:41:39.295Z,99607.66
2022-11-27T11:44:06.116Z,99607.47
2022-11-27T11:46:36.438Z,99609.28
2022-11-27T11:49:15.719Z,99609.47
2022-11-27T11:52:29.894Z,99614.47
2022-11-27T11:55:06.426Z,99617.78
2022-11-27T11:57:51.553Z,99604.59
2022-11-27T12:00:28.029Z,99598.44
2022-11-27T12:03:14.969Z,99604.94
2022-11-27T12:05:41.808Z,99599.75
2022-11-27T12:08:14.653Z,99588.25
2022-11-27T12:10:53.515Z,99593.75
2022-11-27T12:13:38.864Z,99591.25
2022-11-27T12:16:19.380Z,99592.38
2022-11-27T12:19:14.026Z,99581.72
2022-11-27T12:21:55.460Z,99591.91
2022-11-27T12:24:45.383Z,99591.56
2022-11-27T12:27:31.921Z,99574.19
2022-11-27T12:30:35.076Z,99576.56
2022-11-27T12:33:29.420Z,99573.56
2022-11-27T12:36:16.347Z,99584.56
2022-11-27T12:38:45.795Z,99573.91
2022-11-27T12:41:21.327Z,99570.38
2022-11-27T12:43:52.299Z,99580.72
2022-11-27T12:46:28.551Z,99578.72
2022-11-27T12:49:01.510Z,99566.19
2022-11-27T12:51:38.023Z,99576.88
2022-11-27T12:54:12.202Z,99565.69
2022-11-27T12:56:48.431Z,99577.66
2022-11-27T12:59:23.517Z,99576.50
2022-11-27T13:02:02.575Z,99573.97
2022-11-27T13:04:51.880Z,99589.38
2022-11-27T13:07:40.656Z,99589.38
2022-11-27T13:10:11.850Z,99594.72
2022-11-27T13:13:00.099Z,99586.84
2022-11-27T13:15:34.577Z,99586.34
2022-11-27T13:18:21.635Z,99584.66
2022-11-27T13:20:52.724Z,99579.66
2022-11-27T13:23:21.056Z,99574.63
2022-11-27T13:25:55.393Z,99568.63
2022-11-27T13:28:35.979Z,99573.94
2022-11-27T13:31:03.907Z,99579.13
2022-11-27T13:33:41.094Z,99585.44
2022-11-27T13:36:17.980Z,99589.28
2022-11-27T13:38:45.241Z,99600.63
2022-11-27T13:41:21.957Z,99611.47
2022-11-27T13:43:50.358Z,99601.78
2022-11-27T13:46:25.110Z,99594.94
2022-11-27T13:48:56.296Z,99600.59
2022-11-27T13:51:43.414Z,99596.94
2022-11-27T13:54:13.072Z,99590.25
2022-11-27T13:56:40.728Z,99593.91
2022-11-27T13:59:14.957Z,99588.75
2022-11-27T14:01:58.034Z,99584.72
2022-11-27T14:04:29.120Z,99582.25
2022-11-27T14:07:00.999Z,99577.56
2022-11-27T14:09:51.175Z,99574.22
2022-11-27T14:12:36.476Z,99565.19
2022-11-27T14:15:10.317Z,99564.50
2022-11-27T14:17:42.865Z,99563.19
2022-11-27T14:20:18.464Z,99568.69
2022-11-27T14:23:18.533Z,99571.00
2022-11-27T14:25:45.296Z,99579.00
2022-11-27T14:28:14.606Z,99584.81
2022-11-27T14:30:47.496Z,99591.16
2022-11-27T14:33:59.764Z,99588.13
2022-11-27T14:36:25.915Z,99587.97
2022-11-27T14:38:52.740Z,99593.31
2022-11-27T14:41:22.709Z,99589.81
2022-11-27T14:44:14.805Z,99587.44
2022-11-27T14:46:41.956Z,99593.25
2022-11-27T14:49:18.227Z,99593.72
2022-11-27T14:51:45.915Z,99593.19
2022-11-27T14:54:29.346Z,99591.22
2022-11-27T14:56:57.203Z,99594.22
2022-11-27T14:59:24.725Z,99593.38
2022-11-27T15:02:04.235Z,99592.69
2022-11-27T15:04:36.767Z,99597.66
2022-11-27T15:07:16.232Z,99604.97
2022-11-27T15:09:47.187Z,99602.09
2022-11-27T15:12:19.235Z,99589.31
2022-11-27T15:14:58.208Z,99586.09
2022-11-27T15:17:31.772Z,99582.47
2022-11-27T15:20:00.838Z,99587.31
2022-11-27T15:22:27.636Z,99581.31
2022-11-27T15:25:02.973Z,99593.94
2022-11-27T15:27:44.778Z,99585.75
2022-11-27T15:30:18.107Z,99587.72
2022-11-27T15:32:51.134Z,99575.25
2022-11-27T15:38:11.432Z,99558.00
2022-11-27T15:40:40.714Z,99564.31
2022-11-27T15:43:16.019Z,99558.69
2022-11-27T15:45:44.404Z,99558.19
2022-11-27T15:48:16.615Z,99563.22
2022-11-27T15:50:48.366Z,99558.44
2022-11-27T15:53:18.308Z,99557.72
2022-11-27T15:55:44.995Z,99561.22
2022-11-27T15:58:11.715Z,99558.94
2022-11-27T16:00:38.585Z,99562.47
2022-11-27T16:03:05.652Z,99555.78
2022-11-27T16:05:32.371Z,99550.97
2022-11-27T16:07:59.098Z,99544.50
2022-11-27T16:10:25.835Z,99534.81
2022-11-27T16:12:55.533Z,99539.88
2022-11-27T16:15:23.889Z,99534.56
2022-11-27T16:17:51.852Z,99522.38
2022-11-27T16:20:18.581Z,99537.25
2022-11-27T16:22:45.279Z,99531.09
2022-11-27T16:25:16.336Z,99524.09
2022-11-27T16:27:43.283Z,99538.25
2022-11-27T16:30:10.678Z,99533.22
2022-11-27T16:32:39.011Z,99527.91
2022-11-27T16:35:07.441Z,99528.56
2022-11-27T16:37:34.734Z,99523.53
2022-11-27T16:40:02.223Z,99517.56
2022-11-27T16:42:29.623Z,99523.53
2022-11-27T16:44:56.537Z,99524.06
2022-11-27T16:47:23.243Z,99520.22
2022-11-27T16:49:50.502Z,99513.25
2022-11-27T16:52:17.530Z,99508.22
2022-11-27T16:54:44.511Z,99507.38
2022-11-27T16:57:12.366Z,99508.25
2022-11-27T16:59:39.504Z,99511.25
2022-11-27T17:02:06.386Z,99508.25
2022-11-27T17:04:33.944Z,99497.59
2022-11-27T17:07:00.793Z,99493.91
2022-11-27T17:09:29.425Z,99495.59
2022-11-27T17:11:56.135Z,99496.41
2022-11-27T17:14:27.312Z,99505.44
2022-11-27T17:16:54.120Z,99486.09
2022-11-27T17:19:24.061Z,99503.22
2022-11-27T17:21:51.206Z,99484.56
2022-11-27T17:24:20.082Z,99496.22
2022-11-27T17:26:48.560Z,99494.09
2022-11-27T17:29:19.051Z,99499.56
2022-11-27T17:31:46.223Z,99499.41
2022-11-27T17:34:15.064Z,99496.75
2022-11-27T17:36:44.843Z,99508.78
2022-11-27T17:39:20.567Z,99511.28
2022-11-27T17:41:49.610Z,99511.66
2022-11-27T17:44:16.305Z,99507.19
2022-11-27T17:46:48.116Z,99503.66
2022-11-27T17:49:14.953Z,99501.66
2022-11-27T17:51:42.413Z,99502.00
2022-11-27T17:54:10.853Z,99493.66
2022-11-27T17:56:39.136Z,99498.97
2022-11-27T17:59:06.049Z,99501.28
2022-11-27T18:01:34.713Z,99493.44
2022-11-27T18:04:04.383Z,99493.94
2022-11-27T18:06:32.616Z,99490.94
2022-11-27T18:08:59.667Z,99495.63
2022-11-27T18:11:29.582Z,99483.25
2022-11-27T18:13:58.952Z,99472.94
2022-11-27T18:16:32.817Z,99476.59
2022-11-27T18:19:03.726Z,99478.59
2022-11-27T18:21:31.163Z,99471.94
2022-11-27T18:24:22.545Z,99473.25
2022-11-27T18:29:33.466Z,99468.94
2022-11-27T18:32:00.254Z,99463.59
2022-11-27T18:34:27.054Z,99462.28
2022-11-27T18:36:57.347Z,99467.09
2022-11-27T18:39:24.183Z,99466.28
2022-11-27T18:41:51.075Z,99464.59
2022-11-27T18:44:18.160Z,99460.25
2022-11-27T18:46:45.133Z,99465.41
2022-11-27T18:49:13.001Z,99472.44
2022-11-27T18:51:40.693Z,99481.94
2022-11-27T18:54:08.112Z,99476.59
2022-11-27T18:56:34.909Z,99481.97
2022-11-27T18:59:05.342Z,99472.50
2022-11-27T19:01:41.273Z,99470.00
2022-11-27T19:04:10.652Z,99474.16
2022-11-27T19:06:38.650Z,99489.34
2022-11-27T19:09:06.407Z,99468.81
2022-11-27T19:11:35.042Z,99460.97
2022-11-27T19:14:03.825Z,99465.94
2022-11-27T19:16:36.917Z,99453.94
2022-11-27T19:19:05.001Z,99452.59
2022-11-27T19:21:33.814Z,99456.09
2022-11-27T19:24:02.930Z,99441.41
2022-11-27T19:26:32.832Z,99444.44
2022-11-27T19:29:01.470Z,99436.59
2022-11-27T19:31:30.362Z,99444.06
2022-11-27T19:33:59.827Z,99437.59
2022-11-27T19:36:28.527Z,99436.94
2022-11-27T19:39:01.113Z,99443.09
2022-11-27T19:41:30.028Z,99440.94
2022-11-27T19:44:12.008Z,99437.25
2022-11-27T19:46:39.364Z,99435.25
2022-11-27T19:49:14.314Z,99438.28
2022-11-27T19:51:44.349Z,99437.09
2022-11-27T19:54:13.855Z,99439.28
2022-11-27T19:56:42.512Z,99440.50
2022-11-27T19:59:11.290Z,99436.97
2022-11-27T20:12:16.912Z,99440.50
2022-11-27T20:14:43.944Z,99440.66
2022-11-27T20:17:11.454Z,99447.31
2022-11-27T20:19:38.750Z,99444.50
2022-11-27T20:22:05.548Z,99437.97
2022-11-27T20:24:32.697Z,99422.13
2022-11-27T20:26:59.421Z,99422.31
2022-11-27T20:29:26.135Z,99433.81
2022-11-27T20:31:52.944Z,99436.13
2022-11-27T20:34:21.787Z,99427.97
2022-11-27T20:36:49.623Z,99418.78
2022-11-27T20:39:21.246Z,99427.81
2022-11-27T20:41:51.466Z,99410.91
2022-11-27T20:44:18.421Z,99404.75
2022-11-27T20:46:45.767Z,99400.59
2022-11-27T20:49:13.125Z,99413.78
2022-11-27T20:51:39.976Z,99403.63
2022-11-27T20:54:10.314Z,99398.13
2022-11-27T20:56:37.890Z,99397.78
2022-11-27T20:59:06.905Z,99397.94
2022-11-27T21:01:36.286Z,99404.97
2022-11-27T21:04:09.289Z,99397.94
2022-11-27T21:06:43.453Z,99398.59
2022-11-27T21:09:12.351Z,99402.44
2022-11-27T21:11:39.668Z,99401.63
2022-11-27T21:14:09.740Z,99393.28
2022-11-27T21:16:41.991Z,99392.63
2022-11-27T21:19:15.898Z,99388.28
2022-11-27T21:21:42.827Z,99389.28
2022-11-27T21:24:10.085Z,99385.97
2022-11-27T21:26:36.960Z,99379.59
2022-11-27T21:29:04.454Z,99381.59
2022-11-27T21:31:37.299Z,99384.44
2022-11-27T21:34:06.894Z,99389.94
2022-11-27T21:36:36.582Z,99390.44
2022-11-27T21:39:07.112Z,99388.44
2022-11-27T21:41:34.319Z,99393.63
2022-11-27T21:44:02.104Z,99400.59
2022-11-27T21:46:30.198Z,99396.44
2022-11-27T21:49:00.128Z,99409.63
2022-11-27T21:51:29.258Z,99412.97
2022-11-27T21:53:58.835Z,99409.94
2022-11-27T21:56:27.945Z,99409.94
2022-11-27T21:58:54.921Z,99415.94
2022-11-27T22:01:24.260Z,99414.31
2022-11-27T22:03:54.203Z,99420.97
2022-11-27T22:06:22.271Z,99416.47
2022-11-27T22:08:50.185Z,99408.63
2022-11-27T22:11:21.526Z,99404.44
2022-11-27T22:13:49.703Z,99405.63
2022-11-27T22:16:20.359Z,99407.31
2022-11-27T22:18:48.943Z,99403.63
2022-11-27T22:21:16.559Z,99401.44
2022-11-27T22:23:43.768Z,99399.25
2022-11-27T22:26:13.889Z,99408.28
2022-11-27T22:28:41.026Z,99415.59
2022-11-27T22:31:20.885Z,99400.59
2022-11-27T22:33:49.021Z,99409.59
2022-11-27T22:36:26.347Z,99409.59
2022-11-27T22:38:55.208Z,99402.94
2022-11-27T22:41:25.210Z,99403.91
2022-11-27T22:43:52.863Z,99404.94
2022-11-27T22:46:27.442Z,99393.91
2022-11-27T22:48:55.772Z,99405.25
2022-11-27T22:51:23.718Z,99403.75
2022-11-27T22:53:50.708Z,99404.75
2022-11-27T22:56:18.032Z,99396.56
2022-11-27T22:58:44.845Z,99398.56
2022-11-27T23:01:16.278Z,99406.59
2022-11-27T23:03:43.223Z,99414.94
2022-11-27T23:06:15.040Z,99399.81
2022-11-27T23:08:45.340Z,99404.59
2022-11-27T23:11:19.043Z,99407.13
2022-11-27T23:13:49.715Z,99413.59
2022-11-27T23:16:18.188Z,99409.09
2022-11-27T23:18:45.267Z,99412.28
2022-11-27T23:21:15.051Z,99403.25
2022-11-27T23:23:42.965Z,99405.25
2022-11-27T23:26:18.203Z,99410.25
2022-11-27T23:28:46.593Z,99415.59
2022-11-27T23:31:29.630Z,99414.28
2022-11-27T23:33:58.708Z,99415.41
2022-11-27T23:36:25.892Z,99412.47
2022-11-27T23:38:52.789Z,99412.47
2022-11-27T23:41:22.505Z,99403.97
2022-11-27T23:43:49.967Z,99397.41
2022-11-27T23:46:18.554Z,99397.09
2022-11-27T23:48:45.710Z,99392.59
2022-11-27T23:51:19.452Z,99387.28
2022-11-27T23:53:46.980Z,99401.25
2022-11-27T23:56:19.363Z,99384.94
2022-11-27T23:58:47.637Z,99387.91
